Time;durP1;ratioP1;P1;durP2;ratioP2;P2;SDS_P1;SDS_P2;PMS_P1;PMS_P2;Temp;Humidity;BMP_temperature;BMP_pressure;BME280_temperature;BME280_humidity;BME280_pressure;Samples;Min_cycle;Max_cycle;Signal;HPM_P1;HPM_P2
2021/04/19 00:01:15;;;;;;;1.40;1.30;;;25.70;53.70;;;;;;5138179;27;20491;-87
2021/04/19 00:03:41;;;;;;;1.60;1.50;;;25.50;53.60;;;;;;5138067;27;20443;-85
2021/04/19 00:06:07;;;;;;;1.27;1.17;;;25.50;53.60;;;;;;5137976;27;20447;-88
2021/04/19 00:08:33;;;;;;;1.33;1.23;;;25.50;54.20;;;;;;5138204;27;20437;-88
2021/04/19 00:11:00;;;;;;;1.43;1.33;;;25.50;53.60;;;;;;5137908;27;20462;-89
2021/04/19 00:13:27;;;;;;;1.37;1.27;;;25.50;53.60;;;;;;5137786;27;20437;-87
2021/04/19 00:15:53;;;;;;;1.20;1.10;;;25.50;53.60;;;;;;5137719;27;20489;-87
2021/04/19 00:18:19;;;;;;;1.37;1.27;;;25.50;53.60;;;;;;5137902;27;20448;-87
2021/04/19 00:20:46;;;;;;;1.40;1.30;;;25.50;53.60;;;;;;5137827;27;20441;-84
2021/04/19 00:23:12;;;;;;;1.80;1.70;;;25.50;53.60;;;;;;5137760;27;20446;-87
2021/04/19 00:25:38;;;;;;;1.60;1.50;;;25.50;53.60;;;;;;5137553;27;20434;-87
2021/04/19 00:28:05;;;;;;;1.27;1.17;;;25.50;53.70;;;;;;5137672;27;20448;-86
2021/04/19 00:30:32;;;;;;;1.60;1.30;;;25.50;53.70;;;;;;5137488;27;20433;-88
2021/04/19 00:32:58;;;;;;;1.63;1.53;;;25.50;53.60;;;;;;5137475;27;20438;-90
2021/04/19 00:35:25;;;;;;;1.53;1.43;;;25.40;53.50;;;;;;5137322;27;20476;-85
2021/04/19 00:37:51;;;;;;;1.13;1.03;;;25.40;53.60;;;;;;5137332;27;20438;-84
2021/04/19 00:40:20;;;;;;;1.40;1.30;;;25.40;53.60;;;;;;5137128;27;20928;-85
2021/04/19 00:42:48;;;;;;;1.30;1.20;;;25.40;53.60;;;;;;5137064;27;20470;-83
2021/04/19 00:45:16;;;;;;;1.33;1.23;;;25.40;53.90;;;;;;5137086;27;20781;-83
2021/04/19 00:47:45;;;;;;;1.50;1.30;;;25.40;53.60;;;;;;5137233;27;20490;-84
2021/04/19 00:50:14;;;;;;;1.30;1.20;;;25.40;53.60;;;;;;5136781;27;20429;-83
2021/04/19 00:52:40;;;;;;;1.20;1.10;;;25.40;53.60;;;;;;5137041;27;20438;-87
2021/04/19 00:55:11;;;;;;;1.47;1.37;;;25.40;53.60;;;;;;5136969;27;20473;-87
2021/04/19 00:57:37;;;;;;;1.50;1.40;;;25.40;53.70;;;;;;5137138;27;20442;-86
2021/04/19 01:00:05;;;;;;;1.50;1.40;;;25.40;53.70;;;;;;5136898;27;20480;-90
2021/04/19 01:02:32;;;;;;;2.00;1.60;;;25.40;53.70;;;;;;5135954;27;20433;-88
2021/04/19 01:04:59;;;;;;;1.30;1.20;;;25.40;53.70;;;;;;5136977;27;20445;-90
2021/04/19 01:07:25;;;;;;;1.40;1.30;;;25.40;53.70;;;;;;5136822;27;20437;-86
2021/04/19 01:09:51;;;;;;;1.53;1.43;;;25.50;53.80;;;;;;5136890;27;20441;-87
2021/04/19 01:12:17;;;;;;;1.50;1.40;;;25.40;53.70;;;;;;5136528;27;20462;-87
2021/04/19 01:14:44;;;;;;;1.30;1.20;;;25.40;53.80;;;;;;5136582;27;20442;-87
2021/04/19 01:17:10;;;;;;;1.20;1.10;;;25.40;53.80;;;;;;5136620;27;20434;-89
2021/04/19 01:19:36;;;;;;;1.30;1.20;;;25.30;53.80;;;;;;5136469;27;20959;-92
2021/04/19 01:22:03;;;;;;;1.53;1.43;;;25.40;53.80;;;;;;5136655;27;20429;-91
2021/04/19 01:24:30;;;;;;;1.10;1.00;;;25.30;53.80;;;;;;5136429;27;20505;-86
2021/04/19 01:26:56;;;;;;;1.60;1.30;;;25.30;53.80;;;;;;5136533;27;20800;-88
2021/04/19 01:29:22;;;;;;;1.60;1.50;;;25.30;53.80;;;;;;5136446;27;20882;-83
2021/04/19 01:31:49;;;;;;;1.70;1.60;;;25.30;53.80;;;;;;5136064;27;20438;-84
2021/04/19 01:34:15;;;;;;;2.13;1.43;;;25.30;53.80;;;;;;5136293;27;20434;-83
2021/04/19 01:36:41;;;;;;;1.63;1.53;;;25.30;53.80;;;;;;5135588;27;20504;-83
2021/04/19 01:39:08;;;;;;;1.60;1.50;;;25.30;53.80;;;;;;5136198;27;20951;-83
2021/04/19 01:41:35;;;;;;;1.33;1.23;;;25.30;53.80;;;;;;5136093;27;20464;-83
2021/04/19 01:44:03;;;;;;;1.60;1.50;;;25.30;53.80;;;;;;5135979;27;20495;-85
2021/04/19 01:46:29;;;;;;;1.40;1.30;;;25.30;53.90;;;;;;5136045;27;20438;-84
2021/04/19 01:48:55;;;;;;;1.40;1.30;;;25.30;53.90;;;;;;5136070;27;20792;-83
2021/04/19 01:51:22;;;;;;;1.30;1.20;;;25.30;53.90;;;;;;5135997;27;20437;-83
2021/04/19 01:53:48;;;;;;;1.43;1.33;;;25.30;53.90;;;;;;5135949;27;20447;-83
2021/04/19 01:56:15;;;;;;;1.43;1.33;;;25.30;53.90;;;;;;5135558;27;20484;-83
2021/04/19 01:58:41;;;;;;;1.30;1.20;;;25.20;53.90;;;;;;5135562;27;20767;-83
2021/04/19 02:01:09;;;;;;;1.40;1.30;;;25.20;53.90;;;;;;5135706;27;20440;-83
2021/04/19 02:03:46;;;;;;;1.30;1.20;;;25.20;53.90;;;;;;5135877;27;20985;-82
2021/04/19 02:06:23;;;;;;;1.40;1.30;;;25.30;54.00;;;;;;5135548;27;20437;-82
2021/04/19 02:08:55;;;;;;;1.20;1.10;;;25.40;54.10;;;;;;5135590;27;20438;-85
2021/04/19 02:11:32;;;;;;;1.30;1.10;;;25.20;54.00;;;;;;5135327;27;20514;-83
2021/04/19 02:14:06;;;;;;;1.50;1.40;;;25.20;54.00;;;;;;5135272;27;20437;-83
2021/04/19 02:16:48;;;;;;;1.50;1.40;;;25.20;54.00;;;;;;5135298;27;20484;-86
2021/04/19 02:19:20;;;;;;;1.47;1.37;;;25.00;53.90;;;;;;5135503;27;20442;-82
2021/04/19 02:22:03;;;;;;;1.60;1.50;;;25.20;54.10;;;;;;5135322;27;20908;-84
2021/04/19 02:24:34;;;;;;;1.60;1.50;;;25.20;54.10;;;;;;5135100;27;20494;-83
2021/04/19 02:27:09;;;;;;;2.37;1.60;;;25.20;54.10;;;;;;5135221;27;20444;-82
2021/04/19 02:29:40;;;;;;;1.40;1.30;;;25.20;54.10;;;;;;5135076;27;20433;-85
2021/04/19 02:32:13;;;;;;;1.40;1.17;;;25.20;54.10;;;;;;5135175;27;20438;-87
2021/04/19 02:34:41;;;;;;;1.30;1.20;;;25.20;54.10;;;;;;5135229;27;20442;-89
2021/04/19 02:37:09;;;;;;;1.40;1.30;;;25.20;54.10;;;;;;5134831;27;20538;-83
2021/04/19 02:39:38;;;;;;;1.60;1.50;;;25.20;54.10;;;;;;5135035;27;20437;-88
2021/04/19 02:42:07;;;;;;;1.50;1.40;;;25.20;54.20;;;;;;5134788;27;20976;-88
2021/04/19 02:44:34;;;;;;;1.50;1.40;;;25.20;54.20;;;;;;5134770;27;20444;-84
2021/04/19 02:47:01;;;;;;;1.53;1.43;;;25.40;54.30;;;;;;5134755;27;20496;-83
2021/04/19 02:49:29;;;;;;;1.30;1.20;;;25.20;54.20;;;;;;5134809;27;20786;-87
2021/04/19 02:51:57;;;;;;;1.50;1.40;;;25.20;54.20;;;;;;5134878;27;20441;-83
2021/04/19 02:54:24;;;;;;;1.40;1.30;;;25.20;54.20;;;;;;5134903;27;20849;-83
2021/04/19 02:56:52;;;;;;;1.40;1.30;;;25.20;54.30;;;;;;5134867;27;20564;-84
2021/04/19 02:59:21;;;;;;;1.50;1.33;;;25.20;54.30;;;;;;5134708;27;20567;-87
2021/04/19 03:01:50;;;;;;;1.60;1.50;;;25.20;54.30;;;;;;5134733;27;20442;-86
2021/04/19 03:04:20;;;;;;;1.37;1.27;;;25.20;54.30;;;;;;5134947;27;20447;-84
2021/04/19 03:06:50;;;;;;;1.50;1.40;;;25.20;54.30;;;;;;5134865;27;20936;-90
2021/04/19 03:09:18;;;;;;;1.27;1.17;;;25.20;54.40;;;;;;5134701;27;20445;-86
2021/04/19 03:11:49;;;;;;;1.60;1.50;;;25.20;54.30;;;;;;5134636;27;20460;-84
2021/04/19 03:14:17;;;;;;;1.40;1.30;;;25.20;54.30;;;;;;5134497;27;20932;-89
2021/04/19 03:16:47;;;;;;;1.30;1.20;;;25.40;54.50;;;;;;5134419;27;20477;-88
2021/04/19 03:19:17;;;;;;;1.50;1.40;;;25.20;54.40;;;;;;5134621;27;20434;-82
2021/04/19 03:21:46;;;;;;;1.63;1.53;;;25.20;54.40;;;;;;5134674;27;20429;-85
2021/04/19 03:24:13;;;;;;;1.50;1.40;;;25.40;54.50;;;;;;5134269;27;20444;-83
2021/04/19 03:26:40;;;;;;;1.40;1.30;;;25.40;54.50;;;;;;5134347;28;20438;-83
2021/04/19 03:29:10;;;;;;;1.60;1.50;;;25.20;54.40;;;;;;5134421;28;20433;-87
2021/04/19 03:31:39;;;;;;;1.50;1.40;;;25.20;54.40;;;;;;5134263;28;20447;-88
2021/04/19 03:34:11;;;;;;;1.60;1.50;;;25.20;54.40;;;;;;5134933;28;20449;-84
2021/04/19 03:36:39;;;;;;;1.50;1.40;;;25.20;54.50;;;;;;5134507;28;20492;-86
2021/04/19 03:39:06;;;;;;;1.60;1.50;;;25.20;54.50;;;;;;5134638;28;20437;-85
2021/04/19 03:41:38;;;;;;;1.50;1.40;;;25.20;54.50;;;;;;5134630;28;20475;-88
2021/04/19 03:44:05;;;;;;;1.40;1.30;;;25.20;54.50;;;;;;5134377;28;20943;-88
2021/04/19 03:46:37;;;;;;;1.50;1.40;;;25.40;54.60;;;;;;5134374;28;20925;-87
2021/04/19 03:49:08;;;;;;;1.80;1.70;;;25.20;54.50;;;;;;5134950;28;20422;-87
2021/04/19 03:51:36;;;;;;;1.40;1.30;;;25.20;54.50;;;;;;5134233;28;20449;-89
2021/04/19 03:54:03;;;;;;;1.80;1.70;;;25.20;54.50;;;;;;5134309;28;20434;-85
2021/04/19 03:56:33;;;;;;;1.50;1.40;;;25.20;54.50;;;;;;5133944;28;20485;-89
2021/04/19 03:59:03;;;;;;;1.80;1.70;;;25.20;54.50;;;;;;5133919;28;20522;-89
2021/04/19 04:01:30;;;;;;;1.60;1.50;;;25.20;54.50;;;;;;5134019;28;20434;-87
2021/04/19 04:03:58;;;;;;;1.40;1.30;;;25.20;54.60;;;;;;5134065;28;20797;-83
2021/04/19 04:06:27;;;;;;;1.53;1.43;;;25.20;54.50;;;;;;5133999;28;20441;-86
2021/04/19 04:08:54;;;;;;;1.67;1.57;;;25.30;54.60;;;;;;5133906;28;20442;-83
2021/04/19 04:11:21;;;;;;;1.67;1.57;;;25.20;54.60;;;;;;5133778;28;20516;-84
2021/04/19 04:13:47;;;;;;;1.37;1.27;;;25.10;54.50;;;;;;5134037;28;20441;-86
2021/04/19 04:16:16;;;;;;;1.40;1.30;;;25.20;54.60;;;;;;5133554;28;20532;-85
2021/04/19 04:18:42;;;;;;;1.60;1.50;;;25.20;54.60;;;;;;5133825;28;20524;-85
2021/04/19 04:21:10;;;;;;;1.70;1.60;;;25.20;54.60;;;;;;5133756;28;20441;-84
2021/04/19 04:23:38;;;;;;;1.90;1.80;;;25.20;54.60;;;;;;5133664;28;20445;-85
2021/04/19 04:26:04;;;;;;;1.57;1.47;;;25.20;54.60;;;;;;5133717;28;20789;-88
2021/04/19 04:28:36;;;;;;;2.03;1.93;;;25.20;54.60;;;;;;5133633;28;20437;-83
2021/04/19 04:31:02;;;;;;;1.60;1.50;;;25.20;54.60;;;;;;5133788;28;20429;-84
2021/04/19 04:33:28;;;;;;;1.77;1.67;;;25.20;54.60;;;;;;5133655;28;20438;-89
2021/04/19 04:35:54;;;;;;;1.60;1.50;;;25.20;54.70;;;;;;5133613;27;20526;-85
2021/04/19 04:38:21;;;;;;;1.70;1.60;;;25.20;54.60;;;;;;5136734;27;20446;-88
2021/04/19 04:40:48;;;;;;;1.70;1.60;;;25.20;54.60;;;;;;5137218;27;20526;-86
2021/04/19 04:43:19;;;;;;;1.80;1.70;;;25.20;54.60;;;;;;5137425;27;20468;-86
2021/04/19 04:45:46;;;;;;;1.70;1.60;;;25.20;54.60;;;;;;5137334;27;20561;-86
2021/04/19 04:48:20;;;;;;;1.60;1.50;;;25.20;54.60;;;;;;5137362;27;20438;-87
2021/04/19 04:50:52;;;;;;;1.73;1.63;;;25.10;54.60;;;;;;5137061;27;20445;-87
2021/04/19 04:53:21;;;;;;;1.67;1.57;;;25.10;54.60;;;;;;5137293;27;20494;-83
2021/04/19 04:55:50;;;;;;;1.63;1.53;;;25.10;54.60;;;;;;5136776;27;20484;-89
2021/04/19 04:58:17;;;;;;;1.80;1.70;;;25.20;54.60;;;;;;5137093;27;20429;-84
2021/04/19 05:00:45;;;;;;;1.90;1.80;;;25.20;54.70;;;;;;5136842;27;20538;-84
2021/04/19 05:03:15;;;;;;;1.50;1.40;;;25.10;54.50;;;;;;5136513;27;20438;-87
2021/04/19 05:05:42;;;;;;;1.83;1.73;;;25.10;54.60;;;;;;5136798;27;20525;-89
2021/04/19 05:08:11;;;;;;;1.70;1.60;;;25.10;54.70;;;;;;5136679;27;20586;-84
2021/04/19 05:10:39;;;;;;;1.60;1.50;;;25.10;54.60;;;;;;5136628;27;20481;-84
2021/04/19 05:13:11;;;;;;;2.07;1.97;;;25.10;54.60;;;;;;5136689;27;20479;-85
2021/04/19 05:15:41;;;;;;;1.90;1.80;;;25.10;54.60;;;;;;5136497;27;20499;-83
2021/04/19 05:18:10;;;;;;;2.00;1.90;;;25.10;54.60;;;;;;5136559;27;20482;-85
2021/04/19 05:20:36;;;;;;;1.80;1.70;;;25.10;54.70;;;;;;5136563;27;20440;-88
2021/04/19 05:23:02;;;;;;;2.20;2.00;;;25.10;54.60;;;;;;5136488;27;20461;-84
2021/04/19 05:25:29;;;;;;;1.40;1.30;;;25.10;54.60;;;;;;5136255;27;20433;-83
2021/04/19 05:28:02;;;;;;;1.87;1.77;;;25.10;54.60;;;;;;5136450;27;20445;-87
2021/04/19 05:30:42;;;;;;;1.70;1.60;;;25.10;54.60;;;;;;5136436;27;20526;-86
2021/04/19 05:33:15;;;;;;;2.23;2.13;;;25.10;54.60;;;;;;5137010;27;20514;-90
2021/04/19 05:35:41;;;;;;;1.40;1.30;;;25.10;54.70;;;;;;5136664;27;20512;-89
2021/04/19 05:38:08;;;;;;;1.60;1.50;;;25.10;54.60;;;;;;5136294;27;20438;-84
2021/04/19 05:40:49;;;;;;;2.00;1.90;;;25.10;54.70;;;;;;5136155;27;20461;-90
2021/04/19 05:43:16;;;;;;;1.87;1.67;;;25.10;54.70;;;;;;5136224;27;20533;-85
2021/04/19 05:45:44;;;;;;;1.60;1.50;;;25.10;54.80;;;;;;5136235;27;20441;-83
2021/04/19 05:48:10;;;;;;;2.17;2.07;;;25.10;54.70;;;;;;5135715;27;20438;-85
2021/04/19 05:50:37;;;;;;;1.80;1.70;;;25.10;54.70;;;;;;5136151;27;20434;-83
2021/04/19 05:53:04;;;;;;;1.50;1.40;;;25.10;54.60;;;;;;5135975;27;20429;-84
2021/04/19 05:55:34;;;;;;;1.80;1.70;;;25.10;54.70;;;;;;5135627;27;20465;-82
2021/04/19 05:58:09;;;;;;;1.40;1.30;;;25.10;54.70;;;;;;5135699;27;20797;-83
2021/04/19 06:00:39;;;;;;;1.83;1.10;;;25.10;54.60;;;;;;5135573;27;20473;-83
2021/04/19 06:03:20;;;;;;;2.63;1.87;;;25.10;54.40;;;;;;5135890;27;20454;-83
2021/04/19 06:05:56;;;;;;;1.80;1.70;;;25.30;54.70;;;;;;5118003;27;20451;-86
2021/04/19 06:08:28;;;;;;;1.43;1.33;;;25.20;54.60;;;;;;5115028;28;20445;-87
2021/04/19 06:11:02;;;;;;;1.93;1.83;;;25.20;54.50;;;;;;5115020;28;20465;-86
2021/04/19 06:13:30;;;;;;;1.90;1.60;;;25.20;54.80;;;;;;5115110;28;20438;-83
2021/04/19 06:16:01;;;;;;;2.20;2.10;;;25.20;55.00;;;;;;5115041;28;20484;-88
2021/04/19 06:18:31;;;;;;;1.70;1.60;;;25.20;55.10;;;;;;5115459;28;20458;-83
2021/04/19 06:21:01;;;;;;;2.00;1.90;;;25.20;55.10;;;;;;5115222;28;20438;-83
2021/04/19 06:23:28;;;;;;;2.80;1.90;;;25.20;55.10;;;;;;5114715;28;20546;-83
2021/04/19 06:25:54;;;;;;;1.60;1.50;;;25.30;55.20;;;;;;5125809;27;20441;-85
2021/04/19 06:28:24;;;;;;;1.90;1.80;;;25.20;55.00;;;;;;5127106;27;20462;-82
2021/04/19 06:30:51;;;;;;;2.40;1.73;;;25.20;55.10;;;;;;5135382;27;20490;-86
2021/04/19 06:33:20;;;;;;;1.90;1.80;;;25.20;55.20;;;;;;5136102;27;20436;-90
2021/04/19 06:35:48;;;;;;;1.83;1.73;;;25.20;55.20;;;;;;5135459;27;20478;-87
2021/04/19 06:38:18;;;;;;;1.83;1.73;;;25.20;55.20;;;;;;5135134;27;20468;-83
2021/04/19 06:40:46;;;;;;;1.80;1.70;;;25.40;54.50;;;;;;5135228;27;20460;-83
2021/04/19 06:43:13;;;;;;;2.00;1.90;;;25.20;54.40;;;;;;5135034;27;20541;-83
2021/04/19 06:45:41;;;;;;;1.80;1.70;;;25.20;55.10;;;;;;5134879;27;20437;-83
2021/04/19 06:48:09;;;;;;;3.30;1.77;;;25.20;55.20;;;;;;5135253;27;20442;-84
2021/04/19 06:50:36;;;;;;;1.93;1.83;;;25.20;55.30;;;;;;5135253;27;20441;-82
2021/04/19 06:53:04;;;;;;;2.40;1.60;;;25.20;55.30;;;;;;5135012;27;20883;-92
2021/04/19 06:55:33;;;;;;;1.70;1.60;;;25.20;55.30;;;;;;5134864;27;20806;-89
2021/04/19 06:58:03;;;;;;;1.80;1.70;;;25.30;55.40;;;;;;5134955;27;20912;-83
2021/04/19 07:00:31;;;;;;;1.70;1.60;;;25.30;55.40;;;;;;5133884;27;20509;-83
2021/04/19 07:02:59;;;;;;;1.60;1.37;;;25.30;55.40;;;;;;5134952;27;20445;-87
2021/04/19 07:05:27;;;;;;;3.27;1.70;;;25.30;55.50;;;;;;5134847;27;20445;-86
2021/04/19 07:08:11;;;;;;;1.20;1.10;;;25.30;55.50;;;;;;5134833;27;20485;-89
2021/04/19 07:10:38;;;;;;;1.80;1.70;;;25.40;55.60;;;;;;5134564;27;20471;-88
2021/04/19 07:13:08;;;;;;;1.63;1.53;;;25.30;56.20;;;;;;5128014;27;20455;-83
2021/04/19 07:15:36;;;;;;;1.50;1.40;;;25.40;55.60;;;;;;5129801;27;20477;-85
2021/04/19 07:18:04;;;;;;;1.90;1.53;;;25.40;55.70;;;;;;5127135;27;20921;-84
2021/04/19 07:20:31;;;;;;;4.27;3.97;;;25.40;55.00;;;;;;5124450;27;20437;-84
2021/04/19 07:22:59;;;;;;;4.93;4.30;;;25.40;55.90;;;;;;5134193;27;20442;-83
2021/04/19 07:25:27;;;;;;;4.80;4.40;;;25.30;55.90;;;;;;5134116;28;20440;-84
2021/04/19 07:27:54;;;;;;;8.50;5.27;;;25.20;56.20;;;;;;5134229;28;20434;-84
2021/04/19 07:30:21;;;;;;;8.70;5.30;;;25.00;56.30;;;;;;5129866;28;20456;-83
2021/04/19 07:32:47;;;;;;;5.20;4.70;;;24.80;56.30;;;;;;5115838;28;20948;-87
2021/04/19 07:35:15;;;;;;;4.40;4.10;;;24.70;56.20;;;;;;5113478;28;20439;-84
2021/04/19 07:37:56;;;;;;;4.60;4.20;;;24.60;56.20;;;;;;5113083;28;20446;-82
2021/04/19 07:40:30;;;;;;;4.47;4.10;;;24.40;56.40;;;;;;5113528;27;20482;-87
2021/04/19 07:43:12;;;;;;;4.60;4.30;;;24.30;56.60;;;;;;5113204;28;20467;-83
2021/04/19 07:45:40;;;;;;;4.40;4.03;;;24.20;56.90;;;;;;5113142;28;20440;-86
2021/04/19 07:48:29;;;;;;;4.37;3.97;;;24.10;57.40;;;;;;5113092;28;20443;-83
2021/04/19 07:50:55;;;;;;;5.73;3.27;;;24.10;57.60;;;;;;5127976;28;20497;-84
2021/04/19 07:53:21;;;;;;;2.70;2.50;;;24.20;57.80;;;;;;5133312;28;20449;-85
2021/04/19 07:55:52;;;;;;;1.90;1.80;;;24.00;57.70;;;;;;5133037;28;20465;-84
2021/04/19 07:58:21;;;;;;;1.77;1.67;;;24.00;57.10;;;;;;5133103;28;20504;-86
2021/04/19 08:00:47;;;;;;;2.00;1.50;;;24.10;57.10;;;;;;5133032;28;20469;-84
2021/04/19 08:03:17;;;;;;;2.73;1.90;;;24.20;56.90;;;;;;5132936;28;20447;-90
2021/04/19 08:05:47;;;;;;;1.73;1.50;;;24.40;57.10;;;;;;5133164;28;20443;-84
2021/04/19 08:08:15;;;;;;;1.70;1.60;;;24.60;57.00;;;;;;5130074;28;20481;-90
2021/04/19 08:21:38;;;;;;;3.20;1.80;;;24.90;56.50;;;;;;5452710;23;20474;-86
2021/04/19 08:24:12;;;;;;;3.93;2.27;;;25.00;56.20;;;;;;4959143;29;20480;-86
2021/04/19 08:26:52;;;;;;;4.87;1.80;;;25.10;56.10;;;;;;4965567;28;20453;-91
2021/04/19 08:34:59;;;;;;;1.73;1.63;;;25.20;56.10;;;;;;5429998;23;20501;-83
2021/04/19 08:37:29;;;;;;;7.30;1.77;;;25.30;56.10;;;;;;5016334;28;20549;-80
2021/04/19 08:39:57;;;;;;;3.77;2.23;;;25.30;56.30;;;;;;5015963;28;20447;-81
2021/04/19 08:42:24;;;;;;;2.70;2.20;;;25.40;56.90;;;;;;5015339;28;20447;-82
2021/04/19 08:44:52;;;;;;;2.63;1.90;;;25.40;56.10;;;;;;5015475;28;20454;-81
2021/04/19 08:47:20;;;;;;;2.97;1.53;;;25.50;56.10;;;;;;5015524;28;20799;-81
2021/04/19 08:49:47;;;;;;;3.83;1.47;;;25.50;56.10;;;;;;5014611;28;20505;-79
2021/04/19 08:52:15;;;;;;;1.83;1.63;;;25.50;56.20;;;;;;5015158;28;20474;-90
2021/04/19 08:54:42;;;;;;;3.57;1.97;;;25.60;56.00;;;;;;5015155;28;20439;-83
2021/04/19 08:57:08;;;;;;;3.63;1.57;;;25.60;56.00;;;;;;5016711;28;20561;-81
2021/04/19 08:59:35;;;;;;;2.63;1.77;;;25.60;56.00;;;;;;5015255;28;20458;-80
2021/04/19 09:02:03;;;;;;;1.77;1.67;;;25.60;56.00;;;;;;5015013;28;20458;-81
2021/04/19 09:04:29;;;;;;;4.90;1.57;;;25.60;56.00;;;;;;5014973;28;20455;-82
2021/04/19 09:06:57;;;;;;;3.80;1.70;;;25.60;55.90;;;;;;5015045;28;20445;-90
2021/04/19 09:09:36;;;;;;;3.40;1.83;;;25.50;55.90;;;;;;5015169;28;20443;-85
2021/04/19 09:12:24;;;;;;;2.23;1.60;;;25.60;55.80;;;;;;5015224;28;20447;-88
2021/04/19 09:15:07;;;;;;;2.60;1.63;;;25.60;55.70;;;;;;5015345;28;20451;-87
2021/04/19 09:17:33;;;;;;;4.27;1.93;;;25.60;55.80;;;;;;4992074;28;20488;-79
2021/04/19 09:20:00;;;;;;;2.87;2.37;;;25.60;55.90;;;;;;4981218;28;20468;-87
2021/04/19 09:22:27;;;;;;;2.93;1.83;;;25.60;55.80;;;;;;4987739;28;20468;-87
2021/04/19 09:25:00;;;;;;;3.07;1.70;;;25.60;55.80;;;;;;4995469;28;20448;-85
2021/04/19 09:27:48;;;;;;;2.47;1.80;;;25.60;55.80;;;;;;4995508;28;20511;-81
2021/04/19 09:30:34;;;;;;;2.37;2.10;;;25.60;55.70;;;;;;4995180;28;20489;-86
2021/04/19 09:33:22;;;;;;;3.00;2.13;;;25.70;56.20;;;;;;4994964;28;20456;-87
2021/04/19 09:35:50;;;;;;;6.30;2.97;;;25.70;56.10;;;;;;4994783;28;20605;-89
2021/04/19 09:38:32;;;;;;;2.60;2.20;;;25.70;56.20;;;;;;4995361;28;20457;-87
2021/04/19 09:41:00;;;;;;;2.60;2.37;;;25.70;56.60;;;;;;4994567;28;20463;-80
2021/04/19 09:43:34;;;;;;;2.80;2.60;;;25.70;56.70;;;;;;4994882;28;20443;-85
2021/04/19 09:46:01;;;;;;;2.57;2.27;;;25.90;56.70;;;;;;4994678;28;20448;-82
2021/04/19 09:48:55;;;;;;;2.83;2.20;;;25.80;56.70;;;;;;4994885;28;20451;-78
2021/04/19 09:51:24;;;;;;;2.47;2.27;;;25.90;56.60;;;;;;4994807;28;20462;-79
2021/04/19 09:53:56;;;;;;;2.70;1.93;;;26.00;56.40;;;;;;4994617;28;20469;-83
2021/04/19 09:56:25;;;;;;;2.47;2.17;;;26.10;56.20;;;;;;4995049;28;20498;-89
2021/04/19 09:58:53;;;;;;;5.93;3.00;;;26.10;56.00;;;;;;4994674;28;20444;-80
2021/04/19 10:01:20;;;;;;;8.70;3.53;;;26.00;56.10;;;;;;4994592;28;20536;-87
2021/04/19 10:03:49;;;;;;;2.80;1.87;;;26.00;55.70;;;;;;4994588;28;20452;-88
2021/04/19 10:06:21;;;;;;;2.20;2.00;;;26.00;55.60;;;;;;4994742;28;20452;-79
2021/04/19 10:08:49;;;;;;;6.60;1.77;;;25.90;55.80;;;;;;4994522;28;20778;-79
2021/04/19 10:11:21;;;;;;;5.23;2.43;;;25.90;55.80;;;;;;4994380;28;20456;-79
2021/04/19 10:13:48;;;;;;;6.33;2.27;;;25.90;55.80;;;;;;4994225;28;20475;-79
2021/04/19 10:16:17;;;;;;;8.83;2.30;;;25.80;55.70;;;;;;4994058;28;20480;-86
2021/04/19 10:18:51;;;;;;;4.70;2.50;;;25.80;55.80;;;;;;4994419;28;20552;-85
2021/04/19 10:21:28;;;;;;;5.30;2.00;;;25.80;55.80;;;;;;4994713;28;20799;-80
2021/04/19 10:23:56;;;;;;;1.90;1.70;;;25.90;55.50;;;;;;4994740;28;20459;-84
2021/04/19 10:26:34;;;;;;;5.73;1.83;;;25.90;55.50;;;;;;4994621;28;20440;-84
2021/04/19 10:29:10;;;;;;;1.77;1.57;;;25.90;55.60;;;;;;4994571;28;20538;-83
2021/04/19 10:31:37;;;;;;;6.03;1.90;;;25.90;55.60;;;;;;4994116;28;20445;-79
2021/04/19 10:34:11;;;;;;;2.43;2.20;;;25.80;55.60;;;;;;4993761;28;20572;-79
2021/04/19 10:36:44;;;;;;;3.10;1.90;;;25.80;55.60;;;;;;4993986;28;20520;-79
2021/04/19 10:39:15;;;;;;;3.27;2.03;;;25.80;55.70;;;;;;4994237;28;20479;-79
2021/04/19 10:41:42;;;;;;;4.13;1.70;;;25.80;55.80;;;;;;4994067;28;20825;-78
2021/04/19 10:44:09;;;;;;;2.90;2.07;;;25.80;55.80;;;;;;4994029;28;20471;-79
2021/04/19 10:46:38;;;;;;;2.93;1.57;;;25.80;55.90;;;;;;4993825;28;20458;-79
2021/04/19 10:49:06;;;;;;;5.63;1.73;;;25.80;55.90;;;;;;4993819;28;20444;-78
2021/04/19 10:51:34;;;;;;;3.40;1.93;;;25.80;56.00;;;;;;4993727;28;20453;-78
2021/04/19 10:54:02;;;;;;;3.17;1.83;;;25.80;55.90;;;;;;4993586;28;20468;-79
2021/04/19 10:56:29;;;;;;;1.70;1.57;;;25.80;55.90;;;;;;4993714;28;20496;-79
2021/04/19 10:58:57;;;;;;;2.93;1.73;;;25.80;55.90;;;;;;4993781;28;20480;-79
2021/04/19 11:01:25;;;;;;;1.60;1.40;;;25.80;54.70;;;;;;4993610;28;20476;-82
2021/04/19 11:03:53;;;;;;;3.43;1.63;;;25.80;54.40;;;;;;4993327;28;20447;-83
2021/04/19 11:06:20;;;;;;;2.20;1.53;;;25.70;54.30;;;;;;4993527;28;20579;-86
2021/04/19 11:08:58;;;;;;;4.43;1.60;;;25.70;54.40;;;;;;4993813;28;20449;-82
2021/04/19 11:11:40;;;;;;;3.40;2.00;;;25.80;55.00;;;;;;4993617;28;20453;-84
2021/04/19 11:14:15;;;;;;;4.20;1.57;;;25.70;55.60;;;;;;4991299;28;20466;-88
2021/04/19 11:16:56;;;;;;;3.17;1.50;;;25.80;55.20;;;;;;4993730;28;20487;-88
2021/04/19 11:19:31;;;;;;;3.13;1.77;;;25.80;55.20;;;;;;4993650;28;20448;-88
2021/04/19 11:21:58;;;;;;;2.10;1.70;;;25.80;55.30;;;;;;4993502;28;20491;-87
2021/04/19 11:24:36;;;;;;;4.40;2.73;;;25.70;55.30;;;;;;4994067;28;20448;-88
2021/04/19 11:27:07;;;;;;;7.27;4.77;;;25.80;55.30;;;;;;4993403;28;20463;-79
2021/04/19 11:29:37;;;;;;;8.73;4.40;;;25.70;55.40;;;;;;4993397;28;20532;-80
2021/04/19 11:32:06;;;;;;;8.87;4.53;;;25.80;55.40;;;;;;4993601;28;20462;-86
2021/04/19 11:34:37;;;;;;;10.70;4.03;;;25.70;55.40;;;;;;4993992;28;20480;-90
2021/04/19 11:37:05;;;;;;;5.63;4.10;;;25.70;55.80;;;;;;4993857;28;20493;-87
2021/04/19 11:39:38;;;;;;;7.13;5.23;;;25.70;55.30;;;;;;4993866;28;20451;-84
2021/04/19 11:42:06;;;;;;;8.77;4.87;;;25.70;55.30;;;;;;4993498;28;20443;-86
2021/04/19 11:44:45;;;;;;;7.77;4.77;;;25.70;55.30;;;;;;4993789;28;20451;-85
2021/04/19 11:47:12;;;;;;;9.90;3.93;;;25.70;55.20;;;;;;4996594;28;20505;-85
2021/04/19 11:49:39;;;;;;;4.73;3.43;;;25.60;55.20;;;;;;4997249;28;20447;-85
2021/04/19 11:52:05;;;;;;;8.00;3.53;;;25.70;55.10;;;;;;4997125;28;20529;-84
2021/04/19 11:54:32;;;;;;;5.20;3.83;;;25.70;54.90;;;;;;4997398;28;20455;-84
2021/04/19 11:56:58;;;;;;;8.53;4.00;;;25.70;55.10;;;;;;4997326;28;20853;-86
2021/04/19 11:59:24;;;;;;;7.37;4.00;;;25.70;55.20;;;;;;4997317;28;20443;-85
2021/04/19 12:01:50;;;;;;;8.20;3.80;;;25.70;55.40;;;;;;4997199;28;20870;-85
2021/04/19 12:04:17;;;;;;;6.40;4.00;;;25.70;55.50;;;;;;4997070;28;20440;-85
2021/04/19 12:06:44;;;;;;;7.50;4.03;;;25.70;55.50;;;;;;4997222;28;20447;-84
2021/04/19 12:09:10;;;;;;;5.67;3.30;;;25.80;55.70;;;;;;4997285;28;20451;-84
2021/04/19 12:11:36;;;;;;;3.30;2.63;;;25.80;55.70;;;;;;4996924;28;20451;-85
2021/04/19 12:14:02;;;;;;;5.30;2.70;;;25.80;54.90;;;;;;4996780;28;20471;-84
2021/04/19 12:16:29;;;;;;;5.23;3.10;;;26.00;54.30;;;;;;5001256;28;20539;-85
2021/04/19 12:18:56;;;;;;;6.90;2.90;;;25.90;54.70;;;;;;5004603;28;20447;-84
2021/04/19 12:21:22;;;;;;;3.40;2.93;;;25.90;55.20;;;;;;5004061;28;20478;-85
2021/04/19 12:23:50;;;;;;;5.73;2.70;;;25.90;55.40;;;;;;5000610;28;20464;-89
2021/04/19 12:26:16;;;;;;;5.80;2.97;;;25.90;55.40;;;;;;4998723;28;20451;-85
2021/04/19 12:28:42;;;;;;;5.50;3.00;;;25.90;55.40;;;;;;4997948;28;20459;-89
2021/04/19 12:31:09;;;;;;;3.90;3.60;;;26.00;55.50;;;;;;4998126;28;20456;-89
2021/04/19 12:33:35;;;;;;;5.37;2.83;;;26.00;55.60;;;;;;4998099;28;20518;-87
2021/04/19 12:36:01;;;;;;;4.03;3.20;;;26.10;55.60;;;;;;5004543;28;20436;-83
2021/04/19 12:38:28;;;;;;;4.07;3.13;;;26.10;55.60;;;;;;5007508;28;20935;-83
2021/04/19 12:40:56;;;;;;;5.07;2.80;;;26.10;55.60;;;;;;5006668;28;20440;-83
2021/04/19 12:43:22;;;;;;;5.87;3.40;;;26.10;55.60;;;;;;5005849;28;20451;-84
2021/04/19 12:45:48;;;;;;;4.37;2.87;;;26.10;55.60;;;;;;5003739;28;20544;-84
2021/04/19 12:48:14;;;;;;;4.20;3.00;;;26.10;55.70;;;;;;5005252;28;20456;-83
2021/04/19 12:50:41;;;;;;;7.90;2.70;;;26.10;55.70;;;;;;5001854;28;20454;-84
2021/04/19 12:53:09;;;;;;;4.70;2.70;;;26.10;55.70;;;;;;5003316;28;20472;-83
2021/04/19 12:55:36;;;;;;;3.80;2.63;;;26.00;55.70;;;;;;5004492;28;20440;-84
2021/04/19 12:58:04;;;;;;;6.07;2.50;;;26.00;55.80;;;;;;5004775;28;20559;-84
2021/04/19 13:00:31;;;;;;;3.60;2.70;;;26.00;55.70;;;;;;5006565;28;20450;-84
2021/04/19 13:02:57;;;;;;;7.73;2.70;;;26.00;55.70;;;;;;5005726;28;20540;-84
2021/04/19 13:05:23;;;;;;;7.83;2.70;;;26.00;55.80;;;;;;5083842;23;20494;-83
2021/04/19 13:07:50;;;;;;;2.50;2.30;;;26.00;55.80;;;;;;5045950;28;20479;-83
2021/04/19 13:10:17;;;;;;;2.70;2.50;;;26.00;55.80;;;;;;5040265;28;20446;-84
2021/04/19 13:12:43;;;;;;;2.00;1.90;;;26.00;55.80;;;;;;5038202;28;20444;-84
2021/04/19 13:15:12;;;;;;;6.53;2.77;;;26.00;55.80;;;;;;5041062;28;20450;-84